Latest Weather Observations for Adele Island

IDW60801

Issued at 6:33 pm WST Friday 18 August 2017 (issued every 30 minutes, with the page automatically refreshed every 10 minutes)

About weather observations | Map of weather stations | Latest weather observations for WA | Other Formats
Station Details ID: 200735 Name: ADELE ISLAND Lat: -15.51 Lon: 123.16 Height: 4.6 m
Data from the previous 72 hours. | See also: Recent months at Adele Island
Date/Time
WST
Temp
°C
App
Temp
°C
Dew
Point
°C
Rel
Hum
%
Delta-T
°C
Wind Press
QNH
hPa
Press
MSL
hPa
Rain since
9am
mm
Dir  Spd
km/h
Gust
km/h
Spd
kts
Gust
kts
18/06:30pm - - - - - WSW 11 13 6 7 1012.3 1012.2 -
18/06:00pm - - - - - WSW 15 17 8 9 1012.0 1011.9 -
18/05:30pm - - - - - WNW 11 15 6 8 1011.9 1011.8 -
18/05:00pm - - - - - NW 11 13 6 7 1011.7 1011.6 -
18/04:30pm - - - - - NW 11 13 6 7 1011.5 1011.4 -
18/04:00pm - - - - - NW 11 13 6 7 1011.2 1011.1 -
18/03:30pm - - - - - WSW 11 15 6 8 1011.0 1010.9 -
18/03:00pm - - - - - WSW 11 15 6 8 1010.8 1010.7 -
18/02:30pm - - - - - WSW 11 15 6 8 1011.0 1010.9 -
18/02:00pm - - - - - WSW 11 15 6 8 1011.3 1011.2 -
18/01:30pm - - - - - SW 13 15 7 8 1011.6 1011.5 -
18/01:00pm - - - - - SW 15 17 8 9 1012.0 1011.9 -
18/12:30pm - - - - - SW 15 17 8 9 1012.4 1012.3 -
18/12:00pm - - - - - SW 15 20 8 11 1012.6 1012.5 -
18/11:30am - - - - - SW 15 20 8 11 1013.0 1012.9 -
18/11:00am - - - - - WSW 17 20 9 11 1013.3 1013.2 -
18/10:30am - - - - - SW 15 20 8 11 1013.6 1013.5 -
18/10:00am - - - - - SW 15 19 8 10 1014.0 1013.9 -
18/09:30am - - - - - SW 9 11 5 6 1014.2 1014.1 -
18/09:00am - - - - - SW 7 9 4 5 1014.0 1013.9 -
18/08:30am - - - - - SW 4 9 2 5 1013.9 1013.8 -
18/08:00am - - - - - SW 2 7 1 4 1013.6 1013.5 -
18/07:30am - - - - - S 2 6 1 3 1013.5 1013.4 -
18/07:00am - - - - - S 9 11 5 6 1013.4 1013.3 -
18/06:30am - - - - - S 13 15 7 8 1013.3 1013.2 -
18/06:00am - - - - - S 13 15 7 8 1013.0 1012.9 -
18/05:30am - - - - - SSW 9 11 5 6 1012.4 1012.3 -
18/05:00am - - - - - S 11 13 6 7 1012.2 1012.1 -
18/04:30am - - - - - SSW 9 11 5 6 1011.9 1011.8 -
18/04:00am - - - - - SSW 11 11 6 6 1011.5 1011.4 -
18/03:30am - - - - - SW 11 13 6 7 1011.1 1011.0 -
18/03:00am - - - - - SW 11 11 6 6 1011.0 1010.9 -
18/02:30am - - - - - SSW 11 11 6 6 1011.0 1010.9 -
18/02:00am - - - - - SW 9 11 5 6 1010.9 1010.8 -
18/01:30am - - - - - SSW 11 13 6 7 1011.0 1010.9 -
18/01:00am - - - - - SSW 13 15 7 8 1011.2 1011.1 -
18/12:30am - - - - - SSW 11 13 6 7 1011.4 1011.3 -
18/12:00am - - - - - SSW 13 15 7 8 1011.6 1011.5 -
 
Date/Time
WST
Temp
°C
App
Temp
°C
Dew
Point
°C
Rel
Hum
%
Delta-T
°C
Wind Press
QNH
hPa
Press
MSL
hPa
Rain since
9am
mm
Dir  Spd
km/h
Gust
km/h
Spd
kts
Gust
kts
17/11:30pm - - - - - SSW 13 15 7 8 1011.7 1011.6 -
17/11:00pm - - - - - SW 13 15 7 8 1011.9 1011.8 -
17/10:30pm - - - - - SW 13 17 7 9 1012.1 1012.0 -
17/10:00pm - - - - - SW 13 15 7 8 1012.1 1012.0 -
17/09:30pm - - - - - WSW 13 17 7 9 1012.0 1011.9 -
17/09:00pm - - - - - WSW 11 13 6 7 1011.9 1011.8 -
17/08:30pm - - - - - WSW 9 15 5 8 1011.9 1011.8 -
17/08:00pm - - - - - WSW 11 11 6 6 1011.8 1011.7 -
17/07:30pm - - - - - WSW 9 11 5 6 1011.6 1011.5 -
17/07:00pm - - - - - WSW 9 11 5 6 1011.2 1011.1 -
17/06:30pm - - - - - WSW 11 13 6 7 1011.0 1010.9 -
17/06:00pm - - - - - W 9 13 5 7 1010.8 1010.7 -
17/05:30pm - - - - - W 9 11 5 6 1010.6 1010.5 -
17/05:00pm - - - - - WNW 9 13 5 7 1010.4 1010.3 -
17/04:30pm - - - - - NW 9 11 5 6 1010.4 1010.3 -
17/04:00pm - - - - - NW 9 13 5 7 1010.3 1010.2 -
17/03:30pm - - - - - NW 9 13 5 7 1010.1 1010.0 -
17/03:00pm - - - - - NW 9 13 5 7 1010.2 1010.1 -
17/02:30pm - - - - - NNW 9 13 5 7 1010.2 1010.1 -
17/02:00pm - - - - - N 9 11 5 6 1010.3 1010.2 -
17/01:30pm - - - - - NNE 9 11 5 6 1010.5 1010.4 -
17/01:00pm - - - - - NNE 9 13 5 7 1010.9 1010.8 -
17/12:30pm - - - - - NE 9 13 5 7 1011.3 1011.2 -
17/12:00pm - - - - - E 9 17 5 9 1011.7 1011.6 -
17/11:30am - - - - - ESE 11 15 6 8 1012.0 1011.9 -
17/11:00am - - - - - E 13 19 7 10 1012.5 1012.4 -
17/10:30am - - - - - SSE 11 17 6 9 1012.9 1012.8 -
17/10:00am - - - - - SSE 15 19 8 10 1013.0 1012.9 -
17/09:30am - - - - - S 17 24 9 13 1013.1 1013.0 -
17/09:00am - - - - - S 19 24 10 13 1013.2 1013.1 -
17/08:30am - - - - - S 20 24 11 13 1013.1 1013.0 -
17/08:00am - - - - - S 22 28 12 15 1012.7 1012.6 -
17/07:30am - - - - - S 20 28 11 15 1012.6 1012.5 -
17/07:00am - - - - - SSW 19 24 10 13 1012.6 1012.5 -
17/06:30am - - - - - SSW 20 26 11 14 1012.4 1012.3 -
17/06:00am - - - - - SSW 19 24 10 13 1012.1 1012.0 -
17/05:30am - - - - - SSW 19 22 10 12 1011.9 1011.8 -
17/05:00am - - - - - SSW 17 22 9 12 1011.7 1011.6 -
17/04:30am - - - - - SSW 19 22 10 12 1011.4 1011.3 -
17/04:00am - - - - - SSW 20 24 11 13 1011.3 1011.2 -
17/03:30am - - - - - SSW 17 20 9 11 1011.3 1011.2 -
17/03:00am - - - - - SW 17 20 9 11 1011.3 1011.2 -
17/02:30am - - - - - SW 17 20 9 11 1011.3 1011.2 -
17/02:00am - - - - - SW 17 20 9 11 1011.3 1011.2 -
17/01:30am - - - - - SSW 17 19 9 10 1011.4 1011.3 -
17/01:00am - - - - - SSW 17 19 9 10 1011.5 1011.4 -
17/12:30am - - - - - SSW 17 20 9 11 1011.6 1011.5 -
17/12:00am - - - - - SW 17 20 9 11 1011.7 1011.6 -
 
Date/Time
WST
Temp
°C
App
Temp
°C
Dew
Point
°C
Rel
Hum
%
Delta-T
°C
Wind Press
QNH
hPa
Press
MSL
hPa
Rain since
9am
mm
Dir  Spd
km/h
Gust
km/h
Spd
kts
Gust
kts
16/11:30pm - - - - - SSW 17 20 9 11 1011.9 1011.8 -
16/11:00pm - - - - - SSW 17 22 9 12 1011.9 1011.8 -
16/10:30pm - - - - - SSW 17 19 9 10 1012.2 1012.1 -
16/10:00pm - - - - - SW 17 17 9 9 1012.3 1012.2 -
16/09:30pm - - - - - SW 15 17 8 9 1012.5 1012.4 -
16/09:00pm - - - - - SW 15 17 8 9 1012.4 1012.3 -
16/08:30pm - - - - - SSW 17 20 9 11 1012.3 1012.2 -
16/08:00pm - - - - - SSW 17 20 9 11 1012.1 1012.0 -
16/07:30pm - - - - - SW 20 24 11 13 1011.8 1011.7 -
16/07:00pm - - - - - SW 19 24 10 13 1011.5 1011.4 -
16/06:30pm - - - - - SW 19 22 10 12 1011.2 1011.1 -
16/06:00pm - - - - - SW 17 20 9 11 1010.9 1010.8 -
16/05:30pm - - - - - SW 17 20 9 11 1010.7 1010.6 -
16/05:00pm - - - - - WSW 15 19 8 10 1010.6 1010.5 -
16/04:30pm - - - - - W 13 15 7 8 1010.4 1010.3 -
16/04:00pm - - - - - WSW 15 20 8 11 1010.4 1010.3 -
16/03:30pm - - - - - SW 15 19 8 10 1010.3 1010.2 -
16/03:00pm - - - - - SW 17 20 9 11 1010.5 1010.4 -
16/02:30pm - - - - - SW 19 22 10 12 1010.6 1010.5 -
16/02:00pm - - - - - SSW 19 22 10 12 1010.7 1010.6 -
16/01:30pm - - - - - SW 19 22 10 12 1011.1 1011.0 -
16/01:00pm - - - - - SW 20 26 11 14 1011.4 1011.3 -
16/12:30pm - - - - - SW 22 28 12 15 1011.8 1011.7 -
16/12:00pm - - - - - SSW 22 28 12 15 1012.2 1012.1 -
16/11:30am - - - - - SW 20 26 11 14 1012.5 1012.4 -
16/11:00am - - - - - SW 20 24 11 13 1012.8 1012.7 -
16/10:30am - - - - - SW 19 24 10 13 1013.1 1013.0 -
16/10:00am - - - - - SSW 20 24 11 13 1013.3 1013.2 -
16/09:30am - - - - - SW 19 22 10 12 1013.5 1013.4 -
16/09:00am - - - - - SW 19 20 10 11 1013.6 1013.5 -
16/08:30am - - - - - SW 17 20 9 11 1013.4 1013.3 -
16/08:00am - - - - - SW 15 19 8 10 1013.2 1013.1 -
16/07:30am - - - - - SW 15 20 8 11 1013.0 1012.9 -
16/07:00am - - - - - WSW 15 17 8 9 1012.8 1012.7 -
16/06:30am - - - - - W 15 19 8 10 1012.5 1012.4 -
16/06:00am - - - - - SW 15 17 8 9 1012.2 1012.1 -
16/05:30am - - - - - WSW 13 19 7 10 1011.9 1011.8 -
16/05:00am - - - - - WSW 17 20 9 11 1011.5 1011.4 -
16/04:30am - - - - - WSW 19 20 10 11 1011.3 1011.2 -
16/04:00am - - - - - WSW 20 24 11 13 1011.0 1010.9 -
16/03:30am - - - - - WSW 20 26 11 14 1011.0 1010.9 -
16/03:00am - - - - - WSW 20 24 11 13 1011.1 1011.0 -
16/02:30am - - - - - WSW 20 22 11 12 1011.2 1011.1 -
16/02:00am - - - - - WSW 17 20 9 11 1011.4 1011.3 -
16/01:30am - - - - - WSW 19 20 10 11 1011.5 1011.4 -
16/01:00am - - - - - WSW 19 20 10 11 1011.6 1011.5 -
16/12:30am - - - - - WSW 19 22 10 12 1012.0 1011.9 -
16/12:00am - - - - - WSW 17 22 9 12 1012.1 1012.0 -
 
Date/Time
WST
Temp
°C
App
Temp
°C
Dew
Point
°C
Rel
Hum
%
Delta-T
°C
Wind Press
QNH
hPa
Press
MSL
hPa
Rain since
9am
mm
Dir  Spd
km/h
Gust
km/h
Spd
kts
Gust
kts
15/11:30pm - - - - - WSW 19 24 10 13 1012.3 1012.2 -
15/11:00pm - - - - - WSW 19 22 10 12 1012.5 1012.4 -
15/10:30pm - - - - - WSW 19 24 10 13 1012.7 1012.6 -
15/10:00pm - - - - - W 19 22 10 12 1012.8 1012.7 -
15/09:30pm - - - - - W 19 24 10 13 1013.0 1012.9 -
15/09:00pm - - - - - W 17 19 9 10 1013.0 1012.9 -
15/08:30pm - - - - - WNW 13 15 7 8 1013.0 1012.9 -
15/08:00pm - - - - - WNW 13 15 7 8 1012.9 1012.8 -
15/07:30pm - - - - - NW 13 15 7 8 1012.7 1012.6 -
15/07:00pm - - - - - WNW 13 17 7 9 1012.5 1012.4 -

Other Formats:

Comma delimited format used in spreadsheet applications
http://www.bom.gov.au/fwo/IDW60801/IDW60801.94210.axf

JavaScript Object Notation format (JSON) in row-major order
http://www.bom.gov.au/fwo/IDW60801/IDW60801.94210.json